createdAt,value
2019-05-18T00:00:03.486Z,17.80
2019-05-18T00:02:32.063Z,18.93
2019-05-18T00:05:00.494Z,18.37
2019-05-18T00:07:28.911Z,18.50
2019-05-18T00:09:57.262Z,18.67
2019-05-18T00:12:26.734Z,18.83
2019-05-18T00:14:55.106Z,18.87
2019-05-18T00:17:25.567Z,19.67
2019-05-18T00:19:53.707Z,17.40
2019-05-18T00:22:22.093Z,18.43
2019-05-18T00:24:50.502Z,18.63
2019-05-18T00:27:19.083Z,18.03
2019-05-18T00:29:47.455Z,19.77
2019-05-18T00:32:15.904Z,19.43
2019-05-18T00:34:44.255Z,20.43
2019-05-18T00:37:12.684Z,19.50
2019-05-18T00:39:41.061Z,20.67
2019-05-18T00:42:09.488Z,19.70
2019-05-18T00:44:37.935Z,20.50
2019-05-18T00:47:06.388Z,19.83
2019-05-18T00:49:34.889Z,19.77
2019-05-18T00:52:03.350Z,20.43
2019-05-18T00:54:31.778Z,20.13
2019-05-18T00:57:00.254Z,19.70
2019-05-18T00:59:28.701Z,20.80
2019-05-18T01:01:57.139Z,19.70
2019-05-18T01:04:25.519Z,20.23
2019-05-18T01:06:55.496Z,20.57
2019-05-18T01:09:23.971Z,20.27
2019-05-18T01:11:52.465Z,20.37
2019-05-18T01:14:21.094Z,22.17
2019-05-18T01:16:49.534Z,21.17
2019-05-18T01:19:17.963Z,20.60
2019-05-18T01:21:46.355Z,19.20
2019-05-18T01:24:14.782Z,21.57
2019-05-18T01:26:43.218Z,20.93
2019-05-18T01:29:11.751Z,19.77
2019-05-18T01:31:40.123Z,21.83
2019-05-18T01:34:08.621Z,22.10
2019-05-18T01:36:37.078Z,22.37
2019-05-18T01:39:05.859Z,21.70
2019-05-18T01:41:34.395Z,21.70
2019-05-18T01:44:02.940Z,21.23
2019-05-18T01:46:31.381Z,21.73
2019-05-18T01:48:59.831Z,20.67
2019-05-18T01:51:28.231Z,21.13
2019-05-18T01:53:56.603Z,22.50
2019-05-18T01:56:24.971Z,20.57
2019-05-18T01:58:53.429Z,21.17
2019-05-18T02:01:22.939Z,20.17
2019-05-18T02:03:51.310Z,22.50
2019-05-18T02:06:19.754Z,24.13
2019-05-18T02:08:49.301Z,22.27
2019-05-18T02:11:17.748Z,21.60
2019-05-18T02:13:46.107Z,22.93
2019-05-18T02:16:14.543Z,21.30
2019-05-18T02:18:42.971Z,23.13
2019-05-18T02:21:11.427Z,24.00
2019-05-18T02:23:39.842Z,22.00
2019-05-18T02:26:08.336Z,23.33
2019-05-18T02:28:36.805Z,23.53
2019-05-18T02:31:05.241Z,22.87
2019-05-18T02:33:33.675Z,24.00
2019-05-18T02:36:02.139Z,23.33
2019-05-18T02:38:30.582Z,23.40
2019-05-18T02:40:59.028Z,23.70
2019-05-18T02:43:27.388Z,24.90
2019-05-18T02:45:55.751Z,24.83
2019-05-18T02:48:24.112Z,23.23
2019-05-18T02:50:52.582Z,23.17
2019-05-18T02:53:21.087Z,23.57
2019-05-18T02:55:49.502Z,23.10
2019-05-18T02:58:17.963Z,25.23
2019-05-18T03:00:46.603Z,22.83
2019-05-18T03:03:15.033Z,23.37
2019-05-18T03:05:44.067Z,27.77
2019-05-18T03:08:12.507Z,26.70
2019-05-18T03:10:40.943Z,25.23
2019-05-18T03:13:09.405Z,27.70
2019-05-18T03:15:37.848Z,26.87
2019-05-18T03:18:06.292Z,28.13
2019-05-18T03:20:34.816Z,24.03
2019-05-18T03:23:03.253Z,26.17
2019-05-18T03:25:31.842Z,27.50
2019-05-18T03:28:00.378Z,27.27
2019-05-18T03:30:28.987Z,28.03
2019-05-18T03:32:57.449Z,27.13
2019-05-18T03:35:25.875Z,28.63
2019-05-18T03:37:54.318Z,28.33
2019-05-18T03:40:22.733Z,27.03
2019-05-18T03:42:51.231Z,28.30
2019-05-18T03:45:19.668Z,28.27
2019-05-18T03:47:48.105Z,28.80
2019-05-18T03:50:16.552Z,26.77
2019-05-18T03:52:44.939Z,25.53
2019-05-18T03:55:13.378Z,27.27
2019-05-18T03:57:41.758Z,24.40
2019-05-18T04:00:10.199Z,23.67
2019-05-18T04:02:38.639Z,27.73
2019-05-18T04:05:07.052Z,28.10
2019-05-18T04:07:35.577Z,26.20
2019-05-18T04:10:04.191Z,26.83
2019-05-18T04:12:32.660Z,26.60
2019-05-18T04:15:01.099Z,26.13
2019-05-18T04:17:29.465Z,27.10
2019-05-18T04:19:57.989Z,26.27
2019-05-18T04:22:26.429Z,26.13
2019-05-18T04:24:54.809Z,27.67
2019-05-18T04:27:23.253Z,25.70
2019-05-18T04:29:51.615Z,26.33
2019-05-18T04:32:20.020Z,25.63
2019-05-18T04:34:48.994Z,26.23
2019-05-18T04:37:17.418Z,27.43
2019-05-18T04:39:45.856Z,28.00
2019-05-18T04:42:14.304Z,27.37
2019-05-18T04:44:42.753Z,27.10
2019-05-18T04:47:11.141Z,26.37
2019-05-18T04:49:39.548Z,25.57
2019-05-18T04:52:07.923Z,26.77
2019-05-18T04:54:36.283Z,25.30
2019-05-18T04:57:04.750Z,27.03
2019-05-18T04:59:33.101Z,25.67
2019-05-18T05:02:01.552Z,25.37
2019-05-18T05:04:29.976Z,23.37
2019-05-18T05:06:58.342Z,26.10
2019-05-18T05:09:26.787Z,25.33
2019-05-18T05:11:55.158Z,23.50
2019-05-18T05:14:23.527Z,26.40
2019-05-18T05:16:52.018Z,27.10
2019-05-18T05:19:20.507Z,26.67
2019-05-18T05:21:48.863Z,24.87
2019-05-18T05:24:17.215Z,24.80
2019-05-18T05:26:45.667Z,27.13
2019-05-18T05:29:15.087Z,26.13
2019-05-18T05:31:43.535Z,25.47
2019-05-18T05:34:11.908Z,24.83
2019-05-18T05:36:40.315Z,26.30
2019-05-18T05:39:08.812Z,25.40
2019-05-18T05:41:37.304Z,25.23
2019-05-18T05:44:05.655Z,24.23
2019-05-18T05:46:37.247Z,26.57
2019-05-18T05:49:04.355Z,24.80
2019-05-18T05:51:32.702Z,23.13
2019-05-18T05:54:01.199Z,24.53
2019-05-18T05:56:29.575Z,23.57
2019-05-18T05:58:58.034Z,24.87
2019-05-18T06:01:26.403Z,24.60
2019-05-18T06:03:54.757Z,22.97
2019-05-18T06:06:23.291Z,24.37
2019-05-18T06:08:51.757Z,25.63
2019-05-18T06:11:20.191Z,24.73
2019-05-18T06:13:48.655Z,24.53
2019-05-18T06:16:17.067Z,23.67
2019-05-18T06:18:45.528Z,22.17
2019-05-18T06:21:13.887Z,23.40
2019-05-18T06:23:42.274Z,23.03
2019-05-18T06:26:10.616Z,22.97
2019-05-18T06:28:39.017Z,22.43
2019-05-18T06:31:07.366Z,23.30
2019-05-18T06:33:35.744Z,22.20
2019-05-18T06:36:04.263Z,20.80
2019-05-18T06:38:32.724Z,20.40
2019-05-18T06:41:01.091Z,20.93
2019-05-18T06:43:29.449Z,20.73
2019-05-18T06:45:57.790Z,18.73
2019-05-18T06:48:26.230Z,20.17
2019-05-18T06:51:06.674Z,19.30
2019-05-18T06:53:24.699Z,19.87
2019-05-18T06:55:53.643Z,19.20
2019-05-18T06:58:22.203Z,18.40
2019-05-18T07:00:50.633Z,18.03
2019-05-18T07:03:19.067Z,17.30
2019-05-18T07:05:47.455Z,16.73
2019-05-18T07:08:15.905Z,17.10
2019-05-18T07:10:44.354Z,17.40
2019-05-18T07:13:12.804Z,17.30
2019-05-18T07:15:41.236Z,16.40
2019-05-18T07:18:09.644Z,16.53
2019-05-18T07:20:38.115Z,16.97
2019-05-18T07:23:06.550Z,16.57
2019-05-18T07:25:34.964Z,14.83
2019-05-18T07:28:03.450Z,14.70
2019-05-18T07:30:31.879Z,15.57
2019-05-18T07:33:00.355Z,14.47
2019-05-18T07:35:28.827Z,13.63
2019-05-18T07:37:57.596Z,13.73
2019-05-18T07:40:26.034Z,13.37
2019-05-18T07:42:54.427Z,13.37
2019-05-18T07:45:22.874Z,13.17
2019-05-18T07:47:51.310Z,11.80
2019-05-18T07:50:19.836Z,12.03
2019-05-18T07:52:49.013Z,12.90
2019-05-18T07:55:17.446Z,12.63
2019-05-18T07:57:45.813Z,12.57
2019-05-18T08:00:15.178Z,12.13
2019-05-18T08:02:43.628Z,12.93
2019-05-18T08:05:12.239Z,12.40
2019-05-18T08:07:40.647Z,10.00
2019-05-18T08:10:09.309Z,10.43
2019-05-18T08:12:37.741Z,9.80
2019-05-18T08:15:06.163Z,9.17
2019-05-18T08:17:34.601Z,9.23
2019-05-18T08:20:03.263Z,9.33
2019-05-18T08:22:31.703Z,8.53
2019-05-18T08:25:00.135Z,8.13
2019-05-18T08:27:28.573Z,6.90
2019-05-18T08:29:57.041Z,7.67
2019-05-18T08:32:25.487Z,6.33
2019-05-18T08:34:53.875Z,6.33
2019-05-18T08:37:22.312Z,7.90
2019-05-18T08:39:50.898Z,6.37
2019-05-18T08:42:19.410Z,5.33
2019-05-18T08:44:47.793Z,5.10
2019-05-18T08:47:16.150Z,5.10
2019-05-18T08:49:44.570Z,5.60
2019-05-18T08:52:13.018Z,6.20
2019-05-18T08:54:41.457Z,5.13
2019-05-18T08:57:09.907Z,5.03
2019-05-18T08:59:40.016Z,5.40
2019-05-18T09:02:08.698Z,5.87
2019-05-18T09:04:37.064Z,5.57
2019-05-18T09:07:05.518Z,6.27
2019-05-18T09:09:33.907Z,5.83
2019-05-18T09:12:04.293Z,7.07
2019-05-18T09:17:15.683Z,7.17
2019-05-18T09:19:44.123Z,7.60
2019-05-18T09:22:22.827Z,7.30
2019-05-18T09:24:42.759Z,7.03
2019-05-18T09:27:11.257Z,5.80
2019-05-18T09:29:39.726Z,6.13
2019-05-18T09:32:08.255Z,5.53
2019-05-18T09:34:40.211Z,5.70
2019-05-18T09:37:08.739Z,7.00
2019-05-18T09:39:41.411Z,6.90
2019-05-18T09:42:12.523Z,6.80
2019-05-18T09:44:41.419Z,7.80
2019-05-18T09:47:14.292Z,6.53
2019-05-18T09:49:45.742Z,6.50
2019-05-18T09:52:14.352Z,6.40
2019-05-18T09:54:42.894Z,5.70
2019-05-18T09:57:11.408Z,4.57
2019-05-18T09:59:39.819Z,4.13
2019-05-18T10:02:08.259Z,4.37
2019-05-18T10:04:36.851Z,5.53
2019-05-18T10:07:05.703Z,5.70
2019-05-18T10:09:39.314Z,5.17
2019-05-18T10:12:18.466Z,4.30
2019-05-18T10:14:50.864Z,4.93
2019-05-18T10:17:19.520Z,4.57
2019-05-18T10:19:47.967Z,4.27
2019-05-18T10:22:20.567Z,4.80
2019-05-18T10:24:49.695Z,4.70
2019-05-18T10:27:18.191Z,5.07
2019-05-18T10:29:46.870Z,4.80
2019-05-18T10:32:15.431Z,4.27
2019-05-18T10:34:43.922Z,4.40
2019-05-18T10:37:12.361Z,5.33
2019-05-18T10:39:40.937Z,5.40
2019-05-18T10:42:29.011Z,4.60
2019-05-18T10:44:57.533Z,5.30
2019-05-18T10:47:26.769Z,5.83
2019-05-18T10:49:55.342Z,5.90
2019-05-18T10:52:23.833Z,5.63
2019-05-18T10:54:52.363Z,6.20
2019-05-18T10:57:20.735Z,5.53
2019-05-18T10:59:50.388Z,5.30
2019-05-18T11:02:19.938Z,5.17
2019-05-18T11:04:48.411Z,4.03
2019-05-18T11:07:17.007Z,5.13
2019-05-18T11:09:45.374Z,4.90
2019-05-18T11:12:13.971Z,4.57
2019-05-18T11:14:42.558Z,4.73
2019-05-18T11:17:11.479Z,5.50
2019-05-18T11:19:40.847Z,5.60
2019-05-18T11:22:10.324Z,5.27
2019-05-18T11:24:40.621Z,4.43
2019-05-18T11:27:11.113Z,4.50
2019-05-18T11:29:39.646Z,3.90
2019-05-18T11:32:08.177Z,4.60
2019-05-18T11:34:37.651Z,5.37
2019-05-18T11:37:06.156Z,5.53
2019-05-18T11:39:34.655Z,5.10
2019-05-18T11:42:03.171Z,4.63
2019-05-18T11:44:31.723Z,5.13
2019-05-18T11:47:00.209Z,4.23
2019-05-18T11:49:29.220Z,4.43
2019-05-18T11:51:57.800Z,4.70
2019-05-18T11:54:26.575Z,4.93
2019-05-18T11:56:55.143Z,4.20
2019-05-18T11:59:23.597Z,4.93
2019-05-18T12:01:52.055Z,4.33
2019-05-18T12:04:20.558Z,3.97
2019-05-18T12:06:49.013Z,3.80
2019-05-18T12:09:18.097Z,3.70
2019-05-18T12:11:46.464Z,3.77
2019-05-18T12:14:14.829Z,4.03
2019-05-18T12:16:43.349Z,4.23
2019-05-18T12:19:11.787Z,3.63
2019-05-18T12:21:40.277Z,3.93
2019-05-18T12:24:15.315Z,3.90
2019-05-18T12:26:39.085Z,3.60
2019-05-18T12:29:07.535Z,4.13
2019-05-18T12:31:35.998Z,3.20
2019-05-18T12:34:04.461Z,4.10
2019-05-18T12:36:32.964Z,3.53
2019-05-18T12:39:01.356Z,4.03
2019-05-18T12:41:29.913Z,3.50
2019-05-18T12:43:58.442Z,3.37
2019-05-18T12:46:27.002Z,3.33
2019-05-18T12:48:55.491Z,3.13
2019-05-18T12:51:24.183Z,3.40
2019-05-18T12:53:52.612Z,3.23
2019-05-18T12:56:21.050Z,3.53
2019-05-18T12:58:49.794Z,3.30
2019-05-18T13:01:18.898Z,3.67
2019-05-18T13:03:47.417Z,3.77
2019-05-18T13:06:16.163Z,3.60
2019-05-18T13:08:44.841Z,3.40
2019-05-18T13:11:13.295Z,3.63
2019-05-18T13:13:41.676Z,3.47
2019-05-18T13:16:10.189Z,2.90
2019-05-18T13:18:38.712Z,3.07
2019-05-18T13:21:07.220Z,2.97
2019-05-18T13:23:35.658Z,4.03
2019-05-18T13:26:04.110Z,3.63
2019-05-18T13:28:32.527Z,3.70
2019-05-18T13:31:01.067Z,3.40
2019-05-18T13:33:29.537Z,3.37
2019-05-18T13:35:57.991Z,3.40
2019-05-18T13:38:26.479Z,3.30
2019-05-18T13:40:54.903Z,3.27
2019-05-18T13:43:23.363Z,3.30
2019-05-18T13:45:51.922Z,3.37
2019-05-18T13:48:20.398Z,3.00
2019-05-18T13:50:48.854Z,3.20
2019-05-18T13:53:17.307Z,3.30
2019-05-18T13:55:45.778Z,3.20
2019-05-18T13:58:14.143Z,3.10
2019-05-18T14:00:42.677Z,3.23
2019-05-18T14:03:11.129Z,3.23
2019-05-18T14:05:39.564Z,3.83
2019-05-18T14:08:08.190Z,3.13
2019-05-18T14:10:36.812Z,3.30
2019-05-18T14:13:05.261Z,3.10
2019-05-18T14:15:33.797Z,3.20
2019-05-18T14:18:02.155Z,3.00
2019-05-18T14:20:30.515Z,3.20
2019-05-18T14:22:58.891Z,3.47
2019-05-18T14:25:27.333Z,3.73
2019-05-18T14:27:55.726Z,3.30
2019-05-18T14:30:24.275Z,3.33
2019-05-18T14:32:52.732Z,3.10
2019-05-18T14:35:21.230Z,3.23
2019-05-18T14:37:49.686Z,3.57
2019-05-18T14:40:18.210Z,3.40
2019-05-18T14:42:46.653Z,3.07
2019-05-18T14:45:15.198Z,3.10
2019-05-18T14:47:43.669Z,3.23
2019-05-18T14:50:12.465Z,3.03
2019-05-18T14:52:41.070Z,2.70
2019-05-18T14:55:09.672Z,3.40
2019-05-18T14:57:38.252Z,3.13
2019-05-18T15:00:07.133Z,3.00
2019-05-18T15:02:35.502Z,4.40
2019-05-18T15:05:04.190Z,4.03
2019-05-18T15:07:33.045Z,4.20
2019-05-18T15:10:01.690Z,4.77
2019-05-18T15:12:30.428Z,4.20
2019-05-18T15:14:58.964Z,4.30
2019-05-18T15:17:27.627Z,4.00
2019-05-18T15:19:56.087Z,4.33
2019-05-18T15:22:24.616Z,3.43
2019-05-18T15:24:53.178Z,3.37
2019-05-18T15:27:21.574Z,4.10
2019-05-18T15:29:52.662Z,3.40
2019-05-18T15:32:21.156Z,5.03
2019-05-18T15:34:52.656Z,5.80
2019-05-18T15:37:21.070Z,6.53
2019-05-18T15:39:51.306Z,6.37
2019-05-18T15:42:19.832Z,6.40
2019-05-18T15:44:48.183Z,6.10
2019-05-18T15:47:16.648Z,6.20
2019-05-18T15:49:47.034Z,5.80
2019-05-18T15:52:15.235Z,5.40
2019-05-18T15:54:43.675Z,6.27
2019-05-18T15:57:12.146Z,6.27
2019-05-18T15:59:42.358Z,8.10
2019-05-18T16:02:10.916Z,6.67
2019-05-18T16:04:39.354Z,7.10
2019-05-18T16:07:07.826Z,6.67
2019-05-18T16:09:36.366Z,7.67
2019-05-18T16:12:04.837Z,8.23
2019-05-18T16:14:43.855Z,9.20
2019-05-18T16:17:18.029Z,8.80
2019-05-18T16:19:54.584Z,8.37
2019-05-18T16:22:38.097Z,7.77
2019-05-18T16:25:03.024Z,6.63
2019-05-18T16:28:29.408Z,7.23
2019-05-18T16:34:56.948Z,6.00
2019-05-18T16:44:40.166Z,4.20
2019-05-18T16:47:08.849Z,3.90
2019-05-18T16:50:00.556Z,3.97
2019-05-18T16:53:23.307Z,3.57
2019-05-18T17:01:53.084Z,2.90
2019-05-18T17:12:19.434Z,2.70
2019-05-18T17:14:49.622Z,2.30
2019-05-18T17:17:20.628Z,2.10
2019-05-18T17:19:49.214Z,2.57
2019-05-18T17:22:22.506Z,3.13
2019-05-18T17:24:49.850Z,2.53
2019-05-18T17:27:18.227Z,2.87
2019-05-18T17:29:48.073Z,2.70
2019-05-18T17:32:16.911Z,3.00
2019-05-18T17:38:27.633Z,2.57
2019-05-18T17:44:50.465Z,3.20
2019-05-18T17:47:34.636Z,4.50
2019-05-18T17:50:11.584Z,4.20
2019-05-18T17:52:40.095Z,4.67
2019-05-18T17:55:08.763Z,4.80
2019-05-18T17:57:37.238Z,4.47
2019-05-18T18:00:07.176Z,3.73
2019-05-18T18:02:42.925Z,4.50
2019-05-18T18:05:13.657Z,4.43
2019-05-18T18:07:42.860Z,5.27
2019-05-18T18:10:11.268Z,5.60
2019-05-18T18:12:39.708Z,5.30
2019-05-18T18:15:10.715Z,5.27
2019-05-18T18:17:42.975Z,5.13
2019-05-18T18:20:11.648Z,5.20
2019-05-18T18:22:40.054Z,5.27
2019-05-18T18:25:14.848Z,5.10
2019-05-18T18:27:46.618Z,5.77
2019-05-18T18:30:15.596Z,5.13
2019-05-18T18:32:48.274Z,5.13
2019-05-18T18:35:18.460Z,4.50
2019-05-18T18:37:49.175Z,4.80
2019-05-18T18:40:18.903Z,4.67
2019-05-18T18:42:47.391Z,4.50
2019-05-18T18:45:18.183Z,4.23
2019-05-18T19:04:48.393Z,5.20
2019-05-18T19:07:16.884Z,5.37
2019-05-18T19:09:47.714Z,6.27
2019-05-18T19:44:28.971Z,6.67
2019-05-18T19:54:26.103Z,7.83
2019-05-18T19:56:57.786Z,8.27
2019-05-18T20:00:28.493Z,8.43
2019-05-18T20:03:33.184Z,8.00
2019-05-18T20:07:45.916Z,7.77
2019-05-18T20:08:54.058Z,8.87
2019-05-18T20:11:30.055Z,8.87
2019-05-18T20:13:58.644Z,8.60
2019-05-18T20:19:39.281Z,9.23
2019-05-18T20:22:05.928Z,9.93
2019-05-18T20:24:34.287Z,9.10
2019-05-18T20:27:02.763Z,9.37
2019-05-18T20:31:35.229Z,10.03
2019-05-18T20:32:31.505Z,10.23
2019-05-18T20:35:01.177Z,9.23
2019-05-18T20:37:31.651Z,10.20
2019-05-18T20:40:00.071Z,9.77
2019-05-18T20:42:49.519Z,10.17
2019-05-18T20:45:20.919Z,10.37
2019-05-18T20:47:51.352Z,10.33
2019-05-18T20:50:19.489Z,9.33
2019-05-18T20:52:47.991Z,9.80
2019-05-18T20:55:16.465Z,9.60
2019-05-18T20:57:44.856Z,9.57
2019-05-18T21:00:21.469Z,10.00
2019-05-18T21:02:50.027Z,9.87
2019-05-18T21:05:18.523Z,10.53
2019-05-18T21:07:47.532Z,10.13
2019-05-18T21:10:17.268Z,10.27
2019-05-18T21:12:45.726Z,11.23
2019-05-18T21:15:14.417Z,9.80
2019-05-18T21:17:53.297Z,10.53
2019-05-18T21:20:21.274Z,9.63
2019-05-18T21:22:57.075Z,10.10
2019-05-18T21:25:25.550Z,10.13
2019-05-18T21:27:54.054Z,10.30
2019-05-18T21:30:25.784Z,10.63
2019-05-18T21:32:54.411Z,10.00
2019-05-18T21:35:27.115Z,11.17
2019-05-18T21:37:55.482Z,11.50
2019-05-18T21:43:29.897Z,10.97
2019-05-18T21:46:05.174Z,10.87
2019-05-18T21:49:08.992Z,10.60
2019-05-18T21:51:30.439Z,10.43
2019-05-18T21:53:59.315Z,10.23
2019-05-18T21:56:28.059Z,11.40
2019-05-18T21:59:10.645Z,11.97
2019-05-18T22:01:26.706Z,11.70
2019-05-18T22:03:55.170Z,11.63
2019-05-18T22:06:23.636Z,10.80
2019-05-18T22:08:52.036Z,10.03
2019-05-18T22:11:20.904Z,12.20
2019-05-18T22:13:53.153Z,11.43
2019-05-18T22:16:44.084Z,14.00
2019-05-18T22:19:53.451Z,14.77
2019-05-18T22:22:21.824Z,13.83
2019-05-18T22:24:50.194Z,14.27
2019-05-18T22:27:19.660Z,14.20
2019-05-18T22:29:48.127Z,13.40
2019-05-18T22:32:16.647Z,14.60
2019-05-18T22:34:47.334Z,14.00
2019-05-18T22:37:22.514Z,14.87
2019-05-18T22:39:50.863Z,14.40
2019-05-18T22:42:19.244Z,14.50
2019-05-18T22:44:48.816Z,13.97
2019-05-18T22:47:22.898Z,14.30
2019-05-18T22:49:48.773Z,13.67
2019-05-18T22:52:17.276Z,14.53
2019-05-18T22:54:47.207Z,13.57
2019-05-18T22:57:16.060Z,14.47
2019-05-18T22:59:44.744Z,13.80
2019-05-18T23:02:13.505Z,15.63
2019-05-18T23:04:41.926Z,15.43
2019-05-18T23:07:10.375Z,15.20
2019-05-18T23:09:38.875Z,14.73
2019-05-18T23:12:07.327Z,15.23
2019-05-18T23:14:35.692Z,14.53
2019-05-18T23:17:04.327Z,16.33
2019-05-18T23:19:32.687Z,15.90
2019-05-18T23:22:01.048Z,15.23
2019-05-18T23:24:29.532Z,15.60
2019-05-18T23:26:58.000Z,14.97
2019-05-18T23:29:26.464Z,16.27
2019-05-18T23:31:54.944Z,16.40
2019-05-18T23:34:23.375Z,16.63
2019-05-18T23:36:51.742Z,18.67
2019-05-18T23:39:20.127Z,16.97
2019-05-18T23:41:48.575Z,17.83
2019-05-18T23:44:17.011Z,18.43
2019-05-18T23:46:45.664Z,17.30
2019-05-18T23:49:14.042Z,16.97
2019-05-18T23:51:42.417Z,17.47
2019-05-18T23:54:10.866Z,18.00
2019-05-18T23:56:39.219Z,18.23
2019-05-18T23:59:07.670Z,18.47
